METAR Data
IDs: Format: Raw Decoded Include TAF

Data at: 0039 UTC 25 Apr 2019

PATG 240152Z AUTO 14010KT 10SM OVC046 01/M07 A2987 RMK NOSPECI
PATG 240030Z AUTO 17010KT 10SM BKN080 01/M07 A2986 RMK NOSPECI
PATG 232143Z AUTO 13003KT 10SM BKN043 OVC060 M01/M08 A2985 RMK NOSPECI
PATG 232040Z AUTO 12006KT 10SM FEW041 BKN050 OVC060 M01/M06 A2985 RMK NOSPECI